Miami, FL

03:03 PM EDT em 19 de Abril de 2015 (GMT -0400)
DV Floral Group | | Change Station
CLOSE
Current Station
Estação Meteorológica Particular
Location: Miami, FL
Altitude: 26 ft
Estações Meteorológicas Próximas

Elev 26 ft 25.79 °N, 80.35 °W | Updated 21 seconds ago

Parcialmente Nublado
Parcialmente Nublado
87.2 °F
Aparente 93 °F
N
9.0
Vento Variável Vento de ESE
Gusts 15.0 mph

Hoje
Máxima -- | Mínima -- °F
--% Possibilidade de Precip.
Ontem
Máxima -- | Mínima -- °F
Precip. -- pol
6:54 AM 7:46 PM
Lua nova, 1% visible
Pressão 29.93 pol
Visibilidade 10.0 milhas
Nuvens Nuvens Dispersas 3500 ft
Nuvens Dispersas 25000 ft
Índice de Calor 93 °F
Ponto de Orvalho 71 °F
Humidade 58%
Chuva 0.00 pol
Altura de Neve Não disponível
UV 10 em vez de 12
Pólen 6.20 em vez de 12
Qualidade do Ar Não disponível
Flu Activity Local Activity
METAR KMIA 191853Z 16013G17KT 10SM SCT035 SCT250 32/17 A2993 RMK AO2 SLP134 T03170172

More Conditions Fewer Conditions

Pressão 29.93 pol
Visibilidade 10.0 milhas
Nuvens Nuvens Dispersas 3500 ft
Nuvens Dispersas 25000 ft
Índice de Calor 93 °F
Ponto de Orvalho 71 °F
Humidade 58%
Chuva 0.00 pol
Altura de Neve Não disponível
UV 10 em vez de 12
Pólen 6.20 em vez de 12
Qualidade do Ar Não disponível
Flu Activity Local Activity
METAR KMIA 191853Z 16013G17KT 10SM SCT035 SCT250 32/17 A2993 RMK AO2 SLP134 T03170172

More Conditions Fewer Conditions

10-Day Weather Forecast

Almanac

Astronomia

Apr. 19, 2015 Nascer Pôr
Hora atual
Crepúsculo civil
Crepúsculo náutico
Crepúsculo astronómico
Lua
Comprimento da luz visível
Duração do Dia
Tomorrow will be .
, % of the Moon is Illuminated

Extremos de Hoje

situação na parte mais alta situação na parte mais baixa

Community

WunderPhotos

Upload Photos

1,814,915 fotografias inseridas!

WunderBlogs® & News

Nearby

Qualidade do Ar

  Qualidade do Ar Índice da Q.A. Poluente
Not available.

Altura da Neve

Estação altura Altitude

Actividade Sísmisca

Cidade Distância Mag. Hora & Data
Mínima magnitude apresentada é 2.5.

Temperaturas das Águas Costeiras

Local Temperatura

Stations

Estações Meteorológicas Próximas

Localização da Estação Temp. Sensação Térmica Ponto de Orvalho Humidade Vento Precip. Elev Actualizado Tipo